createdAt,value
2022-12-19T00:01:37.245Z,51.43
2022-12-19T00:04:08.831Z,58.50
2022-12-19T00:06:38.011Z,40.03
2022-12-19T00:09:11.197Z,57.13
2022-12-19T00:11:38.887Z,46.37
2022-12-19T00:14:07.002Z,53.77
2022-12-19T00:16:33.875Z,57.87
2022-12-19T00:19:01.953Z,67.00
2022-12-19T00:21:31.400Z,56.20
2022-12-19T00:24:03.119Z,50.70
2022-12-19T00:26:35.654Z,61.20
2022-12-19T00:29:08.653Z,52.80
2022-12-19T00:31:38.779Z,56.33
2022-12-19T00:34:06.564Z,93.67
2022-12-19T00:36:34.708Z,62.87
2022-12-19T00:39:07.747Z,58.13
2022-12-19T00:41:37.129Z,71.93
2022-12-19T00:44:07.297Z,72.87
2022-12-19T00:46:35.233Z,81.07
2022-12-19T00:49:03.649Z,75.33
2022-12-19T00:51:33.228Z,84.90
2022-12-19T00:54:01.437Z,78.43
2022-12-19T00:56:37.070Z,58.70
2022-12-19T00:59:07.274Z,53.63
2022-12-19T01:01:37.528Z,51.67
2022-12-19T01:06:54.454Z,66.13
2022-12-19T01:09:32.493Z,68.73
2022-12-19T01:12:18.390Z,65.93
2022-12-19T01:14:45.697Z,72.23
2022-12-19T01:17:12.603Z,64.80
2022-12-19T01:19:44.016Z,49.83
2022-12-19T01:22:14.431Z,77.77
2022-12-19T01:24:41.697Z,90.43
2022-12-19T01:27:09.195Z,50.50
2022-12-19T01:29:37.191Z,49.63
2022-12-19T01:32:12.640Z,50.63
2022-12-19T01:34:39.465Z,53.23
2022-12-19T01:37:06.469Z,50.23
2022-12-19T01:39:33.124Z,52.50
2022-12-19T01:42:01.712Z,49.27
2022-12-19T01:44:28.459Z,45.93
2022-12-19T01:47:00.188Z,48.20
2022-12-19T01:49:37.168Z,50.83
2022-12-19T01:52:07.879Z,52.83
2022-12-19T01:54:40.862Z,50.57
2022-12-19T01:57:12.278Z,50.07
2022-12-19T01:59:46.165Z,51.67
2022-12-19T02:02:24.007Z,48.47
2022-12-19T02:04:51.089Z,53.63
2022-12-19T02:07:20.165Z,55.00
2022-12-19T02:09:56.591Z,41.07
2022-12-19T02:12:38.070Z,51.57
2022-12-19T02:15:08.228Z,44.03
2022-12-19T02:17:52.598Z,47.77
2022-12-19T02:20:29.350Z,44.77
2022-12-19T02:23:03.352Z,49.93
2022-12-19T02:25:36.302Z,47.67
2022-12-19T02:28:33.984Z,45.83
2022-12-19T02:31:26.100Z,47.90
2022-12-19T02:34:02.593Z,45.33
2022-12-19T02:36:33.985Z,49.53
2022-12-19T02:39:27.731Z,53.73
2022-12-19T02:41:58.885Z,46.60
2022-12-19T02:44:40.623Z,55.40
2022-12-19T02:47:10.291Z,45.63
2022-12-19T02:49:39.345Z,52.37
2022-12-19T02:52:34.424Z,49.17
2022-12-19T02:55:06.540Z,53.63
2022-12-19T02:58:09.369Z,58.57
2022-12-19T03:00:51.383Z,50.43
2022-12-19T03:03:35.672Z,52.67
2022-12-19T03:06:30.095Z,47.17
2022-12-19T03:09:08.755Z,47.37
2022-12-19T03:11:39.557Z,51.07
2022-12-19T03:14:11.507Z,48.97
2022-12-19T03:16:38.588Z,48.83
2022-12-19T03:19:10.790Z,45.17
2022-12-19T03:21:44.445Z,51.97
2022-12-19T03:24:13.060Z,43.90
2022-12-19T03:26:55.487Z,53.63
2022-12-19T03:29:33.055Z,47.10
2022-12-19T03:32:03.185Z,45.37
2022-12-19T03:34:42.569Z,50.00
2022-12-19T03:37:17.354Z,44.90
2022-12-19T03:39:49.044Z,56.77
2022-12-19T03:42:36.058Z,52.20
2022-12-19T03:45:06.764Z,50.43
2022-12-19T03:47:51.066Z,56.47
2022-12-19T03:50:18.823Z,45.27
2022-12-19T03:53:05.674Z,46.73
2022-12-19T03:55:41.886Z,52.23
2022-12-19T03:58:16.975Z,55.57
2022-12-19T04:00:50.003Z,49.80
2022-12-19T04:03:19.364Z,52.50
2022-12-19T04:05:48.502Z,48.53
2022-12-19T04:08:16.784Z,56.93
2022-12-19T04:10:58.002Z,56.83
2022-12-19T04:13:46.736Z,49.67
2022-12-19T04:16:39.897Z,66.57
2022-12-19T04:19:16.857Z,49.97
2022-12-19T04:21:57.000Z,53.50
2022-12-19T04:24:30.963Z,55.87
2022-12-19T04:27:02.545Z,54.53
2022-12-19T04:29:33.162Z,55.03
2022-12-19T04:32:03.118Z,50.67
2022-12-19T04:34:33.452Z,45.57
2022-12-19T04:37:03.684Z,51.77
2022-12-19T04:39:30.503Z,55.33
2022-12-19T04:41:58.321Z,56.07
2022-12-19T04:44:25.093Z,53.57
2022-12-19T04:46:51.858Z,48.87
2022-12-19T04:49:18.747Z,48.23
2022-12-19T04:51:45.996Z,49.20
2022-12-19T04:54:13.394Z,49.87
2022-12-19T04:56:40.096Z,52.77
2022-12-19T04:59:06.787Z,45.40
2022-12-19T05:01:33.576Z,49.80
2022-12-19T05:04:04.424Z,46.70
2022-12-19T05:06:32.390Z,49.27
2022-12-19T05:08:59.073Z,49.50
2022-12-19T05:11:26.187Z,48.63
2022-12-19T05:13:53.020Z,45.83
2022-12-19T05:16:19.816Z,48.60
2022-12-19T05:18:46.636Z,46.90
2022-12-19T05:21:14.182Z,48.33
2022-12-19T05:23:41.758Z,40.83
2022-12-19T05:26:11.590Z,37.40
2022-12-19T05:28:38.647Z,38.07
2022-12-19T05:31:10.985Z,41.50
2022-12-19T05:33:40.014Z,35.57
2022-12-19T05:36:08.459Z,41.47
2022-12-19T05:38:36.322Z,41.60
2022-12-19T05:41:12.278Z,40.43
2022-12-19T05:43:42.883Z,38.33
2022-12-19T05:46:09.633Z,38.17
2022-12-19T05:48:36.984Z,40.33
2022-12-19T05:51:04.203Z,39.63
2022-12-19T05:53:31.097Z,43.83
2022-12-19T05:56:16.255Z,41.77
2022-12-19T05:58:45.210Z,40.30
2022-12-19T06:01:20.418Z,113.47
2022-12-19T06:03:47.907Z,47.47
2022-12-19T06:06:20.237Z,76.10
2022-12-19T06:08:47.746Z,55.87
2022-12-19T06:11:14.900Z,50.47
2022-12-19T06:13:42.090Z,47.23
2022-12-19T06:16:21.488Z,44.90
2022-12-19T06:18:48.321Z,44.13
2022-12-19T06:21:20.652Z,44.63
2022-12-19T06:23:47.839Z,40.13
2022-12-19T06:26:19.936Z,35.00
2022-12-19T06:28:51.783Z,34.00
2022-12-19T06:31:20.610Z,36.10
2022-12-19T06:33:47.323Z,47.27
2022-12-19T06:36:16.430Z,54.80
2022-12-19T06:38:44.197Z,37.07
2022-12-19T06:41:29.665Z,44.07
2022-12-19T06:44:05.853Z,52.07
2022-12-19T06:46:33.472Z,37.83
2022-12-19T06:49:00.590Z,38.37
2022-12-19T06:51:28.026Z,48.43
2022-12-19T06:53:55.634Z,41.27
2022-12-19T06:56:22.381Z,45.40
2022-12-19T06:58:49.590Z,46.53
2022-12-19T07:01:25.344Z,43.80
2022-12-19T07:03:52.508Z,44.33
2022-12-19T07:06:19.201Z,45.60
2022-12-19T07:08:45.923Z,46.47
2022-12-19T07:11:13.378Z,47.43
2022-12-19T07:13:40.096Z,53.87
2022-12-19T07:16:08.475Z,54.60
2022-12-19T07:18:38.183Z,47.10
2022-12-19T07:21:06.992Z,49.10
2022-12-19T07:23:34.747Z,46.77
2022-12-19T07:26:01.741Z,44.33
2022-12-19T07:28:36.127Z,44.87
2022-12-19T07:31:02.917Z,47.33
2022-12-19T07:33:30.218Z,45.47
2022-12-19T07:35:57.282Z,40.37
2022-12-19T07:38:25.540Z,45.90
2022-12-19T07:40:52.573Z,45.80
2022-12-19T07:43:19.244Z,42.43
2022-12-19T07:45:46.029Z,42.23
2022-12-19T07:48:14.272Z,39.40
2022-12-19T07:50:41.786Z,46.67
2022-12-19T07:53:08.474Z,41.60
2022-12-19T07:55:35.186Z,42.03
2022-12-19T07:58:01.977Z,43.57
2022-12-19T08:00:29.233Z,43.57
2022-12-19T08:02:56.318Z,38.00
2022-12-19T08:05:23.104Z,38.53
2022-12-19T08:07:55.190Z,38.13
2022-12-19T08:10:22.955Z,40.43
2022-12-19T08:12:49.736Z,38.33
2022-12-19T08:15:16.451Z,36.57
2022-12-19T08:17:44.398Z,36.73
2022-12-19T08:20:11.731Z,38.47
2022-12-19T08:22:38.450Z,37.20
2022-12-19T08:25:07.062Z,40.30
2022-12-19T08:27:34.845Z,36.30
2022-12-19T08:30:01.580Z,33.03
2022-12-19T08:32:29.531Z,34.27
2022-12-19T08:34:56.869Z,38.43
2022-12-19T08:37:30.711Z,38.57
2022-12-19T08:39:59.114Z,44.77
2022-12-19T08:42:26.282Z,47.87
2022-12-19T08:44:53.341Z,39.23
2022-12-19T08:47:20.093Z,38.90
2022-12-19T08:49:46.884Z,43.73
2022-12-19T08:52:14.769Z,37.00
2022-12-19T08:54:44.600Z,40.80
2022-12-19T08:57:11.897Z,33.43
2022-12-19T08:59:38.815Z,31.90
2022-12-19T09:02:07.262Z,35.57
2022-12-19T09:05:58.786Z,33.93
2022-12-19T09:10:38.185Z,32.13
2022-12-19T09:13:05.887Z,28.70
2022-12-19T09:15:32.663Z,27.00
2022-12-19T09:18:00.010Z,28.00
2022-12-19T09:20:29.473Z,27.80
2022-12-19T09:22:56.541Z,25.13
2022-12-19T09:25:23.842Z,19.33
2022-12-19T09:28:26.040Z,19.60
2022-12-19T09:30:37.593Z,17.57
2022-12-19T09:33:05.016Z,19.97
2022-12-19T09:35:31.971Z,15.80
2022-12-19T09:38:00.724Z,15.00
2022-12-19T09:40:31.418Z,14.90
2022-12-19T09:43:06.340Z,15.20
2022-12-19T09:46:19.051Z,18.33
2022-12-19T09:48:55.129Z,16.37
2022-12-19T09:51:38.672Z,19.10
2022-12-19T09:54:13.023Z,24.10
2022-12-19T09:56:46.435Z,21.67
2022-12-19T09:59:41.597Z,21.47
2022-12-19T10:02:31.830Z,26.50
2022-12-19T10:05:17.913Z,23.73
2022-12-19T10:08:09.558Z,20.80
2022-12-19T10:12:38.217Z,25.80
2022-12-19T10:13:51.635Z,21.50
2022-12-19T10:16:30.400Z,25.07
2022-12-19T10:19:16.513Z,20.03
2022-12-19T10:22:17.912Z,20.30
2022-12-19T10:25:00.037Z,20.80
2022-12-19T10:27:59.645Z,22.03
2022-12-19T10:30:32.226Z,20.90
2022-12-19T10:33:19.787Z,23.33
2022-12-19T10:35:53.148Z,20.10
2022-12-19T10:38:49.065Z,21.07
2022-12-19T10:41:29.171Z,19.17
2022-12-19T10:44:10.977Z,18.77
2022-12-19T10:46:40.770Z,21.30
2022-12-19T10:49:18.460Z,21.13
2022-12-19T10:52:05.339Z,19.77
2022-12-19T10:54:41.781Z,20.37
2022-12-19T10:57:18.372Z,17.37
2022-12-19T11:00:02.925Z,19.40
2022-12-19T11:02:38.720Z,20.87
2022-12-19T11:05:22.752Z,18.67
2022-12-19T11:08:08.346Z,20.50
2022-12-19T11:11:54.967Z,17.17
2022-12-19T11:16:45.632Z,23.23
2022-12-19T11:21:06.095Z,20.93
2022-12-19T11:29:26.084Z,25.40
2022-12-19T11:29:38.302Z,30.13
2022-12-19T11:30:45.739Z,30.90
2022-12-19T11:30:47.664Z,25.77
2022-12-19T11:34:04.578Z,30.77
2022-12-19T11:36:35.401Z,30.83
2022-12-19T11:39:04.357Z,28.73
2022-12-19T11:41:47.391Z,22.80
2022-12-19T11:44:29.937Z,22.83
2022-12-19T11:47:19.465Z,25.97
2022-12-19T11:49:52.351Z,20.87
2022-12-19T11:53:05.130Z,23.90
2022-12-19T11:55:47.421Z,21.90
2022-12-19T11:58:14.439Z,20.60
2022-12-19T12:01:02.856Z,24.53
2022-12-19T12:03:59.218Z,24.80
2022-12-19T12:06:46.709Z,25.20
2022-12-19T12:13:36.194Z,21.37
2022-12-19T12:15:57.701Z,19.07
2022-12-19T12:25:27.640Z,24.37
2022-12-19T12:29:48.331Z,21.70
2022-12-19T12:31:10.656Z,22.73
2022-12-19T12:31:42.137Z,24.30
2022-12-19T12:31:59.017Z,26.03
2022-12-19T12:35:56.310Z,24.17
2022-12-19T12:38:24.345Z,20.80
2022-12-19T12:40:52.019Z,24.33
2022-12-19T12:43:24.534Z,20.47
2022-12-19T12:45:51.285Z,25.93
2022-12-19T12:48:26.436Z,26.40
2022-12-19T12:50:56.053Z,26.60
2022-12-19T12:53:33.052Z,20.53
2022-12-19T12:56:06.559Z,18.43
2022-12-19T12:58:50.915Z,21.23
2022-12-19T13:01:37.612Z,23.27
2022-12-19T13:04:21.779Z,23.63
2022-12-19T13:07:23.413Z,25.40
2022-12-19T13:10:05.963Z,20.07
2022-12-19T13:12:51.978Z,22.13
2022-12-19T13:15:27.797Z,21.87
2022-12-19T13:17:54.945Z,23.83
2022-12-19T13:20:25.219Z,23.50
2022-12-19T13:23:00.316Z,26.03
2022-12-19T13:25:27.086Z,29.90
2022-12-19T13:28:03.692Z,24.83
2022-12-19T13:30:54.315Z,28.83
2022-12-19T13:33:20.352Z,23.17
2022-12-19T13:36:32.957Z,24.97
2022-12-19T13:39:55.430Z,22.83
2022-12-19T13:42:02.504Z,25.70
2022-12-19T13:44:32.510Z,24.07
2022-12-19T13:46:59.270Z,25.80
2022-12-19T13:49:34.852Z,24.30
2022-12-19T13:52:04.701Z,22.53
2022-12-19T13:54:38.658Z,25.47
2022-12-19T13:57:23.005Z,20.70
2022-12-19T14:00:00.303Z,23.57
2022-12-19T14:02:45.037Z,21.00
2022-12-19T14:06:16.561Z,24.43
2022-12-19T14:08:28.595Z,21.37
2022-12-19T14:11:33.616Z,25.57
2022-12-19T14:14:17.663Z,24.30
2022-12-19T14:16:49.124Z,24.40
2022-12-19T14:19:26.398Z,27.07
2022-12-19T14:22:11.380Z,23.03
2022-12-19T14:24:41.992Z,23.00
2022-12-19T14:28:24.583Z,25.50
2022-12-19T14:30:29.740Z,24.97
2022-12-19T14:33:43.820Z,24.70
2022-12-19T14:36:10.401Z,19.37
2022-12-19T14:39:22.027Z,21.90
2022-12-19T14:42:01.817Z,20.93
2022-12-19T14:51:51.772Z,22.27
2022-12-19T14:54:10.121Z,22.33
2022-12-19T14:54:21.704Z,21.23
2022-12-19T14:54:39.879Z,23.17
2022-12-19T14:56:53.953Z,21.50
2022-12-19T14:59:29.504Z,26.23
2022-12-19T15:02:03.184Z,22.27
2022-12-19T15:04:51.396Z,24.50
2022-12-19T15:07:33.607Z,24.83
2022-12-19T15:11:07.399Z,25.93
2022-12-19T15:14:55.131Z,26.80
2022-12-19T15:16:23.237Z,30.07
2022-12-19T15:18:51.047Z,26.13
2022-12-19T15:21:17.987Z,27.83
2022-12-19T15:23:45.976Z,28.80
2022-12-19T15:26:16.549Z,28.33
2022-12-19T15:28:52.900Z,32.53
2022-12-19T15:31:40.469Z,35.97
2022-12-19T15:34:48.347Z,30.40
2022-12-19T15:37:14.565Z,33.73
2022-12-19T15:39:43.075Z,34.37
2022-12-19T15:42:22.818Z,37.97
2022-12-19T15:44:51.835Z,35.50
2022-12-19T15:47:39.275Z,35.90
2022-12-19T15:50:18.749Z,34.33
2022-12-19T15:52:45.769Z,41.27
2022-12-19T15:55:15.087Z,40.13
2022-12-19T15:57:46.673Z,51.57
2022-12-19T16:00:25.399Z,47.47
2022-12-19T16:03:23.470Z,50.87
2022-12-19T16:05:42.103Z,41.53
2022-12-19T16:08:27.135Z,37.57
2022-12-19T16:11:01.457Z,43.80
2022-12-19T16:13:35.749Z,45.87
2022-12-19T16:16:11.147Z,42.90
2022-12-19T16:18:43.017Z,70.57
2022-12-19T16:21:31.623Z,52.77
2022-12-19T16:24:01.061Z,57.93
2022-12-19T16:26:40.335Z,53.77
2022-12-19T16:29:20.636Z,49.17
2022-12-19T16:31:48.935Z,42.90
2022-12-19T16:34:20.916Z,48.57
2022-12-19T16:36:48.919Z,47.83
2022-12-19T16:39:17.035Z,53.13
2022-12-19T16:41:45.181Z,44.90
2022-12-19T16:44:19.535Z,47.57
2022-12-19T16:46:51.124Z,50.70
2022-12-19T16:49:25.406Z,56.80
2022-12-19T16:51:52.239Z,62.13
2022-12-19T16:54:20.175Z,49.40
2022-12-19T16:56:50.877Z,62.23
2022-12-19T16:59:22.561Z,56.77
2022-12-19T17:01:51.279Z,51.13
2022-12-19T17:04:21.767Z,54.93
2022-12-19T17:06:50.792Z,54.90
2022-12-19T17:09:23.521Z,48.63
2022-12-19T17:12:00.229Z,52.93
2022-12-19T17:14:32.563Z,43.33
2022-12-19T17:16:59.728Z,60.47
2022-12-19T17:19:32.818Z,49.73
2022-12-19T17:22:00.405Z,44.90
2022-12-19T17:24:27.627Z,43.17
2022-12-19T17:26:54.644Z,43.70
2022-12-19T17:29:21.633Z,41.00
2022-12-19T17:31:48.748Z,45.50
2022-12-19T17:34:29.454Z,47.77
2022-12-19T17:36:58.005Z,43.53
2022-12-19T17:39:27.139Z,41.77
2022-12-19T17:41:58.027Z,46.63
2022-12-19T17:44:24.784Z,50.87
2022-12-19T17:46:52.245Z,47.00
2022-12-19T17:49:31.310Z,43.30
2022-12-19T17:51:59.898Z,32.93
2022-12-19T17:54:28.191Z,34.00
2022-12-19T17:56:55.660Z,32.50
2022-12-19T17:59:22.440Z,30.50
2022-12-19T18:01:50.226Z,32.50
2022-12-19T18:04:20.407Z,27.40
2022-12-19T18:06:47.348Z,30.27
2022-12-19T18:09:23.072Z,26.40
2022-12-19T18:11:52.794Z,29.47
2022-12-19T18:14:20.996Z,29.23
2022-12-19T18:16:50.263Z,31.37
2022-12-19T18:19:24.735Z,30.00
2022-12-19T18:21:52.015Z,26.00
2022-12-19T18:24:19.208Z,25.63
2022-12-19T18:26:45.850Z,23.53
2022-12-19T18:29:13.517Z,23.93
2022-12-19T18:31:46.487Z,21.43
2022-12-19T18:34:25.191Z,18.60
2022-12-19T18:36:53.199Z,20.50
2022-12-19T18:39:24.623Z,19.43
2022-12-19T18:41:52.998Z,16.97
2022-12-19T18:44:20.793Z,20.47
2022-12-19T18:46:50.569Z,18.77
2022-12-19T18:49:17.636Z,19.93
2022-12-19T18:51:45.356Z,19.67
2022-12-19T18:54:15.003Z,22.47
2022-12-19T18:56:41.765Z,20.73
2022-12-19T18:59:09.087Z,22.00
2022-12-19T19:01:41.819Z,19.67
2022-12-19T19:04:12.115Z,23.07
2022-12-19T19:06:40.301Z,22.43
2022-12-19T19:09:15.975Z,20.33
2022-12-19T19:11:53.828Z,23.30
2022-12-19T19:14:21.323Z,22.63
2022-12-19T19:16:48.174Z,18.07
2022-12-19T19:19:17.869Z,18.63
2022-12-19T19:21:45.336Z,22.67
2022-12-19T19:24:22.856Z,22.17
2022-12-19T19:26:50.934Z,18.87
2022-12-19T19:29:20.001Z,17.33
2022-12-19T19:31:51.227Z,19.03
2022-12-19T19:34:29.499Z,19.03
2022-12-19T19:36:59.237Z,18.93
2022-12-19T19:39:27.860Z,19.33
2022-12-19T19:41:56.268Z,16.43
2022-12-19T19:44:24.475Z,18.67
2022-12-19T19:46:51.408Z,15.20
2022-12-19T19:49:21.253Z,19.00
2022-12-19T19:51:48.475Z,19.10
2022-12-19T19:54:15.670Z,15.67
2022-12-19T19:56:42.459Z,13.63
2022-12-19T19:59:09.204Z,15.03
2022-12-19T20:01:37.153Z,19.70
2022-12-19T20:04:05.033Z,18.20
2022-12-19T20:06:31.831Z,16.57
2022-12-19T20:08:58.764Z,14.53
2022-12-19T20:11:25.610Z,18.50
2022-12-19T20:13:53.299Z,19.53
2022-12-19T20:16:20.595Z,20.23
2022-12-19T20:18:52.445Z,14.50
2022-12-19T20:21:20.329Z,14.97
2022-12-19T20:23:47.916Z,15.87
2022-12-19T20:26:16.502Z,15.47
2022-12-19T20:28:48.910Z,19.53
2022-12-19T20:31:23.410Z,16.07
2022-12-19T20:33:53.398Z,17.20
2022-12-19T20:36:21.837Z,17.73
2022-12-19T20:38:49.311Z,15.90
2022-12-19T20:41:17.183Z,14.00
2022-12-19T20:43:44.966Z,16.17
2022-12-19T20:46:17.901Z,15.43
2022-12-19T20:48:46.274Z,17.80
2022-12-19T20:51:15.069Z,18.27
2022-12-19T20:53:42.909Z,17.13
2022-12-19T20:56:14.131Z,20.37
2022-12-19T20:58:41.291Z,19.77
2022-12-19T21:01:14.450Z,20.77
2022-12-19T21:03:42.513Z,20.73
2022-12-19T21:06:11.905Z,18.37
2022-12-19T21:08:39.089Z,18.53
2022-12-19T21:11:09.419Z,14.73
2022-12-19T21:13:38.402Z,14.67
2022-12-19T21:16:09.122Z,14.73
2022-12-19T21:18:38.650Z,21.40
2022-12-19T21:21:07.626Z,14.20
2022-12-19T21:23:34.732Z,17.20
2022-12-19T21:26:03.337Z,16.73
2022-12-19T21:28:30.837Z,15.00
2022-12-19T21:30:59.200Z,16.10
2022-12-19T21:33:26.818Z,13.97
2022-12-19T21:35:54.079Z,16.07
2022-12-19T21:38:21.255Z,17.80
2022-12-19T21:40:48.202Z,21.40
2022-12-19T21:43:15.650Z,18.47
2022-12-19T21:45:42.574Z,17.43
2022-12-19T21:48:09.632Z,16.47
2022-12-19T21:50:36.451Z,14.47
2022-12-19T21:53:03.256Z,18.60
2022-12-19T21:55:30.036Z,16.20
2022-12-19T21:57:57.317Z,14.73
2022-12-19T22:00:24.871Z,14.80
2022-12-19T22:03:12.616Z,16.50
2022-12-19T22:05:40.148Z,15.90
2022-12-19T22:08:09.551Z,17.10
2022-12-19T22:10:39.797Z,14.70
2022-12-19T22:13:06.532Z,17.53
2022-12-19T22:15:36.484Z,16.67
2022-12-19T22:18:03.204Z,17.63
2022-12-19T22:20:30.150Z,15.07
2022-12-19T22:22:56.904Z,17.43
2022-12-19T22:25:24.839Z,17.10
2022-12-19T22:27:51.712Z,14.60
2022-12-19T22:30:18.513Z,15.93
2022-12-19T22:32:45.414Z,14.50
2022-12-19T22:35:12.228Z,15.83
2022-12-19T22:37:39.871Z,16.20
2022-12-19T22:40:08.162Z,18.70
2022-12-19T22:42:34.998Z,13.97
2022-12-19T22:45:01.682Z,16.60
2022-12-19T22:47:28.421Z,21.13
2022-12-19T22:49:55.143Z,18.73
2022-12-19T22:52:24.465Z,18.17
2022-12-19T22:54:51.577Z,14.60
2022-12-19T22:57:18.287Z,17.67
2022-12-19T22:59:45.021Z,18.03
2022-12-19T23:02:12.010Z,16.87
2022-12-19T23:04:39.242Z,18.27
2022-12-19T23:07:05.983Z,18.07
2022-12-19T23:09:33.447Z,15.43
2022-12-19T23:12:00.124Z,17.40
2022-12-19T23:14:26.877Z,19.13
2022-12-19T23:16:53.698Z,15.67
2022-12-19T23:19:20.574Z,17.13
2022-12-19T23:21:47.960Z,19.63
2022-12-19T23:24:15.351Z,14.70
2022-12-19T23:26:42.206Z,17.50
2022-12-19T23:29:11.412Z,15.97
2022-12-19T23:31:40.660Z,17.50
2022-12-19T23:34:09.122Z,19.73
2022-12-19T23:39:23.931Z,14.13
2022-12-19T23:41:50.825Z,14.93
2022-12-19T23:44:18.057Z,16.57
2022-12-19T23:46:44.799Z,15.63
2022-12-19T23:49:11.514Z,15.13
2022-12-19T23:51:38.766Z,12.53
2022-12-19T23:54:05.617Z,18.27
2022-12-19T23:56:33.178Z,16.60
2022-12-19T23:59:00.525Z,15.17
